Flight Track Log - Related Links

Times and Time Zones

All times are in EDT time to prevent confusion due to time zone crossing. See the SWA267 flight status page for this flight to view local times or setup timezone preferences in your user account.


Time Position Orientation Groundspeed Altitude Reporting Facility
EDT Latitude Longitude Course Direction KTS MPH feet Rate Location/Type
Mon 02:08:10 PM 39.1333 -76.6333 143° Southeast 185 213 2,000  Level Potomac TRACON
Mon 02:09:43 PM 39.0636 -76.5647 143° Southeast 216 249 5,900 2,588 Climbing Washington Center
Mon 02:10:43 PM 39.0872 -76.4686 72° East 216 249 8,600 2,650 Climbing Washington Center
Mon 02:11:43 PM 39.1153 -76.3647 71° East 241 277 11,200 2,450 Climbing Washington Center
Mon 02:12:43 PM 39.1431 -76.2447 73° East 310 357 13,500 2,400 Climbing Washington Center
Mon 02:13:43 PM 39.1664 -76.1136 77° East 342 394 16,000 2,350 Climbing Washington Center
Mon 02:14:43 PM 39.1817 -75.9744 82° East 373 429 18,200 1,750 Climbing Washington Center
Mon 02:15:43 PM 39.2217 -75.8408 69° East 385 443 19,500 1,450 Climbing Washington Center
Mon 02:16:43 PM 39.3050 -75.7364 44° Northeast 390 449 21,100 1,700 Climbing Washington Center
Mon 02:17:43 PM 39.3928 -75.6239 45° Northeast 410 472 22,900 900 Climbing Washington Center
Mon 02:18:43 PM 39.4803 -75.5081 46° Northeast 432 497 22,900  Level Washington Center
Mon 02:19:43 PM 39.5697 -75.3897 46° Northeast 446 513 22,900 34 Level Washington Center
Mon 02:21:39 PM 39.7469 -75.1447 47° Northeast 466 536 23,000 34 Climbing New York Center
Mon 02:22:40 PM 39.8347 -75.0231 47° Northeast 460 529 23,000  Level New York Center
Mon 02:23:41 PM 39.9181 -74.9039 48° Northeast 452 520 23,000  Level New York Center
Mon 02:24:41 PM 40.0036 -74.7814 48° Northeast 452 520 23,000  Level New York Center
Mon 02:25:40 PM 40.0803 -74.6747 47° Northeast 452 520 23,000  Level New York Center
Mon 02:26:40 PM 40.1722 -74.5386 48° Northeast 452 520 23,000  Level New York Center
Mon 02:27:40 PM 40.2567 -74.4372 42° Northeast 447 514 23,000 -50 Level New York Center
Mon 02:28:39 PM 40.3514 -74.3358 39° Northeast 447 514 22,900  Descending New York Center
Mon 02:29:40 PM 40.4483 -74.2319 39° Northeast 442 509 23,000 -393 Climbing New York Center
Mon 02:30:41 PM 40.5431 -74.1303 39° Northeast 437 503 22,100 -1,059 Descending New York Center
Mon 02:31:39 PM 40.6156 -73.9997 54° Northeast 430 495 20,900 -468 Descending New York Center
Mon 02:33:15 PM 40.7108 -73.7625 62° Northeast 436 502 20,900  Level Boston Center
Mon 02:34:15 PM 40.7744 -73.6569 51° Northeast 426 490 20,900  Level Boston Center
Mon 02:35:27 PM 40.8850 -73.6644 357° North 360 414 20,900 45 Level Boston Center
Mon 02:36:27 PM 41.0306 -73.6839 354° North 377 434 21,000 50 Climbing Boston Center
Mon 02:37:27 PM 41.1450 -73.6886 358° North 389 448 21,000 -50 Level Boston Center
Mon 02:38:27 PM 41.2556 -73.6964 357° North 389 448 20,900  Descending Boston Center
Mon 02:39:27 PM 41.3658 -73.7014 358° North 396 456 21,000 -450 Climbing Boston Center
Mon 02:40:27 PM 41.4764 -73.7036 359° North 401 461 20,000 -950 Descending Boston Center
Mon 02:41:27 PM 41.5689 -73.6306 31° Northeast 379 436 19,100 -950 Descending Boston Center
Mon 02:42:27 PM 41.6553 -73.5347 40° Northeast 379 436 18,100 -650 Descending Boston Center
Mon 02:43:27 PM 41.7331 -73.4500 39° Northeast 392 451 17,800 -550 Descending Boston Center
Mon 02:44:27 PM 41.8278 -73.3511 38° Northeast 398 458 17,000 -400 Descending Boston Center
Mon 02:45:27 PM 41.9139 -73.2603 38° Northeast 398 458 17,000  Level Boston Center
Mon 02:46:27 PM 41.9981 -73.1664 40° Northeast 398 458 17,000 -350 Level Boston Center
Mon 02:47:27 PM 42.0861 -73.0722 38° Northeast 398 458 16,300 -800 Descending Boston Center
Mon 02:48:27 PM 42.1636 -72.9864 39° Northeast 398 458 15,400 -650 Descending Boston Center
Mon 02:49:27 PM 42.2558 -72.8861 39° Northeast 393 452 15,000 -200 Descending Boston Center
Mon 02:50:27 PM 42.3186 -72.8164 39° Northeast 388 447 15,000  Level Boston Center
Mon 02:51:27 PM 42.4125 -72.7128 39° Northeast 363 418 15,000 -100 Level Boston Center
Mon 02:52:27 PM 42.4711 -72.6231 48° Northeast 356 410 14,800 -50 Descending Boston Center
Mon 02:53:27 PM 42.5253 -72.5189 55° Northeast 344 396 14,900 50 Climbing Boston Center
Mon 02:54:27 PM 42.5797 -72.4092 56° Northeast 344 396 14,900 -250 Level Boston Center
Mon 02:55:27 PM 42.6358 -72.2989 55° Northeast 344 396 14,400 -1,100 Descending Boston Center
Mon 02:56:27 PM 42.6836 -72.2000 57° Northeast 350 403 12,700 -2,000 Descending Boston Center
Mon 02:57:27 PM 42.7458 -72.0753 56° Northeast 345 397 10,400 -1,550 Descending Boston Center
Mon 02:58:27 PM 42.7767 -71.9875 64° Northeast 311 358 9,600 -1,150 Descending Boston Center
Mon 02:59:27 PM 42.7783 -71.8744 89° East 267 307 8,100 -1,450 Descending Boston Center
Mon 03:00:27 PM 42.8008 -71.7864 71° East 267 307 6,700 -1,350 Descending Boston Center
Mon 03:01:27 PM 42.8250 -71.6842 72° East 262 302 5,400 -750 Descending Boston Center
Mon 03:02:27 PM 42.8433 -71.6133 71° East 231 266 5,200 -800 Descending Boston Center
Mon 03:03:27 PM 42.8617 -71.5478 69° East 177 204 3,800 -1,600 Descending Boston Center
Mon 03:04:27 PM 42.8822 -71.5078 55° Northeast 148 170 2,000 -1,550 Descending Boston Center
Mon 03:05:27 PM 42.9131 -71.4678 44° Northeast 136 157 700 6,500 Descending Boston Center
Mon 03:06:27 PM 42.9400 -71.4306 45° Northeast 136 157 15,000 7,150 Climbing Boston Center
Mon 03:07:27 PM 42.9644 -71.3958 46° Northeast 136 157 15,000  Level Boston Center
Mon 03:08:27 PM 42.9914 -71.3586 45° Northeast 136 157 15,000  Level Boston Center
Mon 03:09:27 PM 43.0161 -71.3242 46° Northeast 136 157 15,000  Level Boston Center
Mon 03:10:27 PM 43.0264 -71.3097 46° Northeast 136 157 15,000  Level Boston Center

Login

Don't have an account? Register now (free) for customized features, flight alerts, and more!